sensor_id;sensor_type;location;lat;lon;timestamp;pressure;altitude;pressure_sealevel;temperature;humidity
46946;BME280;32679;40.810;14.498;2023-03-15T00:01:19;98799.75;;;12.42;100.00
46946;BME280;32679;40.810;14.498;2023-03-15T00:03:48;98791.84;;;12.33;100.00
46946;BME280;32679;40.810;14.498;2023-03-15T00:06:13;98791.91;;;12.23;100.00
46946;BME280;32679;40.810;14.498;2023-03-15T00:08:42;98789.56;;;12.14;100.00
46946;BME280;32679;40.810;14.498;2023-03-15T00:11:15;98794.81;;;11.98;100.00
46946;BME280;32679;40.810;14.498;2023-03-15T00:13:40;98799.16;;;12.10;100.00
46946;BME280;32679;40.810;14.498;2023-03-15T00:16:10;98797.66;;;11.94;100.00
46946;BME280;32679;40.810;14.498;2023-03-15T00:18:36;98804.03;;;11.77;100.00
46946;BME280;32679;40.810;14.498;2023-03-15T00:21:04;98784.97;;;11.72;100.00
46946;BME280;32679;40.810;14.498;2023-03-15T00:23:32;98792.16;;;11.69;100.00
46946;BME280;32679;40.810;14.498;2023-03-15T00:25:58;98779.38;;;11.75;100.00
46946;BME280;32679;40.810;14.498;2023-03-15T00:28:26;98786.56;;;11.73;100.00
46946;BME280;32679;40.810;14.498;2023-03-15T00:31:12;98777.84;;;11.67;100.00
46946;BME280;32679;40.810;14.498;2023-03-15T00:33:46;98773.06;;;11.64;100.00
46946;BME280;32679;40.810;14.498;2023-03-15T00:36:15;98768.69;;;11.63;100.00
46946;BME280;32679;40.810;14.498;2023-03-15T00:38:43;98772.22;;;11.71;100.00
46946;BME280;32679;40.810;14.498;2023-03-15T00:41:13;98779.41;;;11.72;100.00
46946;BME280;32679;40.810;14.498;2023-03-15T00:43:40;98777.00;;;11.77;100.00
46946;BME280;32679;40.810;14.498;2023-03-15T00:46:09;98773.00;;;11.75;100.00
46946;BME280;32679;40.810;14.498;2023-03-15T00:48:35;98777.41;;;11.72;100.00
46946;BME280;32679;40.810;14.498;2023-03-15T00:51:02;98771.44;;;11.70;100.00
46946;BME280;32679;40.810;14.498;2023-03-15T00:53:32;98769.84;;;11.73;100.00
46946;BME280;32679;40.810;14.498;2023-03-15T00:55:57;98763.47;;;11.83;100.00
46946;BME280;32679;40.810;14.498;2023-03-15T00:58:26;98765.81;;;11.81;100.00
46946;BME280;32679;40.810;14.498;2023-03-15T01:00:51;98773.34;;;11.91;100.00
46946;BME280;32679;40.810;14.498;2023-03-15T01:03:17;98771.28;;;12.10;100.00
46946;BME280;32679;40.810;14.498;2023-03-15T01:05:42;98763.72;;;12.10;100.00
46946;BME280;32679;40.810;14.498;2023-03-15T01:08:10;98756.94;;;12.07;100.00
46946;BME280;32679;40.810;14.498;2023-03-15T01:10:36;98747.81;;;12.03;100.00
46946;BME280;32679;40.810;14.498;2023-03-15T01:13:03;98747.00;;;12.03;100.00
46946;BME280;32679;40.810;14.498;2023-03-15T01:15:33;98738.72;;;11.92;100.00
46946;BME280;32679;40.810;14.498;2023-03-15T01:18:01;98725.19;;;11.94;100.00
46946;BME280;32679;40.810;14.498;2023-03-15T01:20:27;98720.81;;;11.90;100.00
46946;BME280;32679;40.810;14.498;2023-03-15T01:22:55;98718.03;;;11.86;100.00
46946;BME280;32679;40.810;14.498;2023-03-15T01:25:20;98714.06;;;11.80;100.00
46946;BME280;32679;40.810;14.498;2023-03-15T01:27:48;98717.66;;;11.80;100.00
46946;BME280;32679;40.810;14.498;2023-03-15T01:30:13;98698.94;;;11.85;100.00
46946;BME280;32679;40.810;14.498;2023-03-15T01:32:41;98694.97;;;11.82;100.00
46946;BME280;32679;40.810;14.498;2023-03-15T01:35:07;98693.78;;;11.83;100.00
46946;BME280;32679;40.810;14.498;2023-03-15T01:37:38;98693.38;;;11.81;100.00
46946;BME280;32679;40.810;14.498;2023-03-15T01:40:07;98686.97;;;11.91;100.00
46946;BME280;32679;40.810;14.498;2023-03-15T01:42:50;98700.13;;;11.87;100.00
46946;BME280;32679;40.810;14.498;2023-03-15T01:45:52;98712.50;;;11.83;100.00
46946;BME280;32679;40.810;14.498;2023-03-15T01:48:18;98700.19;;;11.73;100.00
46946;BME280;32679;40.810;14.498;2023-03-15T01:50:46;98705.41;;;11.64;100.00
46946;BME280;32679;40.810;14.498;2023-03-15T01:53:15;98688.75;;;11.49;100.00
46946;BME280;32679;40.810;14.498;2023-03-15T01:55:41;98679.59;;;11.52;100.00
46946;BME280;32679;40.810;14.498;2023-03-15T01:58:10;98675.28;;;11.37;100.00
46946;BME280;32679;40.810;14.498;2023-03-15T02:00:38;98692.44;;;11.25;100.00
46946;BME280;32679;40.810;14.498;2023-03-15T02:03:17;98684.09;;;11.25;100.00
46946;BME280;32679;40.810;14.498;2023-03-15T02:05:50;98684.09;;;11.25;100.00
46946;BME280;32679;40.810;14.498;2023-03-15T02:08:22;98677.72;;;11.28;100.00
46946;BME280;32679;40.810;14.498;2023-03-15T02:10:53;98681.72;;;11.20;100.00
46946;BME280;32679;40.810;14.498;2023-03-15T02:13:22;98687.31;;;11.16;100.00
46946;BME280;32679;40.810;14.498;2023-03-15T02:15:51;98687.31;;;11.20;100.00
46946;BME280;32679;40.810;14.498;2023-03-15T02:18:18;98688.88;;;11.21;100.00
46946;BME280;32679;40.810;14.498;2023-03-15T02:23:38;98689.63;;;11.32;100.00
46946;BME280;32679;40.810;14.498;2023-03-15T02:26:19;98684.06;;;11.36;100.00
46946;BME280;32679;40.810;14.498;2023-03-15T02:28:49;98667.44;;;11.11;100.00
46946;BME280;32679;40.810;14.498;2023-03-15T02:31:20;98684.53;;;11.16;100.00
46946;BME280;32679;40.810;14.498;2023-03-15T02:33:49;98693.69;;;11.10;100.00
46946;BME280;32679;40.810;14.498;2023-03-15T02:36:26;98701.22;;;11.13;100.00
46946;BME280;32679;40.810;14.498;2023-03-15T02:38:57;98700.47;;;11.01;100.00
46946;BME280;32679;40.810;14.498;2023-03-15T02:41:39;98652.44;;;10.83;100.00
46946;BME280;32679;40.810;14.498;2023-03-15T02:44:20;98700.47;;;11.05;100.00
46946;BME280;32679;40.810;14.498;2023-03-15T02:46:52;98690.94;;;10.95;100.00
46946;BME280;32679;40.810;14.498;2023-03-15T02:49:22;98711.97;;;11.11;100.00
46946;BME280;32679;40.810;14.498;2023-03-15T02:51:49;98708.06;;;10.87;100.00
46946;BME280;32679;40.810;14.498;2023-03-15T02:54:15;98726.31;;;10.91;100.00
46946;BME280;32679;40.810;14.498;2023-03-15T02:56:41;98714.81;;;10.89;100.00
46946;BME280;32679;40.810;14.498;2023-03-15T02:59:09;98728.34;;;10.87;100.00
46946;BME280;32679;40.810;14.498;2023-03-15T03:01:37;98726.72;;;10.86;100.00
46946;BME280;32679;40.810;14.498;2023-03-15T03:04:05;98735.91;;;10.87;100.00
46946;BME280;32679;40.810;14.498;2023-03-15T03:06:31;98747.00;;;10.97;100.00
46946;BME280;32679;40.810;14.498;2023-03-15T03:08:56;98733.47;;;11.03;100.00
46946;BME280;32679;40.810;14.498;2023-03-15T03:11:27;98743.34;;;11.22;100.00
46946;BME280;32679;40.810;14.498;2023-03-15T03:13:53;98733.84;;;11.19;100.00
46946;BME280;32679;40.810;14.498;2023-03-15T03:16:23;98740.19;;;11.13;100.00
46946;BME280;32679;40.810;14.498;2023-03-15T03:18:51;98743.78;;;11.20;100.00
46946;BME280;32679;40.810;14.498;2023-03-15T03:21:21;98742.50;;;11.43;100.00
46946;BME280;32679;40.810;14.498;2023-03-15T03:23:46;98732.22;;;11.25;100.00
46946;BME280;32679;40.810;14.498;2023-03-15T03:26:17;98737.34;;;11.41;100.00
46946;BME280;32679;40.810;14.498;2023-03-15T03:28:46;98733.38;;;11.28;100.00
46946;BME280;32679;40.810;14.498;2023-03-15T03:31:25;98735.81;;;11.19;100.00
46946;BME280;32679;40.810;14.498;2023-03-15T03:33:54;98739.78;;;11.18;100.00
46946;BME280;32679;40.810;14.498;2023-03-15T03:36:25;98734.22;;;11.18;100.00
46946;BME280;32679;40.810;14.498;2023-03-15T03:38:56;98740.56;;;11.22;100.00
46946;BME280;32679;40.810;14.498;2023-03-15T03:41:21;98740.59;;;11.15;100.00
46946;BME280;32679;40.810;14.498;2023-03-15T03:43:47;98743.78;;;11.10;100.00
46946;BME280;32679;40.810;14.498;2023-03-15T03:46:15;98742.94;;;11.23;100.00
46946;BME280;32679;40.810;14.498;2023-03-15T03:48:43;98738.22;;;11.10;100.00
46946;BME280;32679;40.810;14.498;2023-03-15T03:51:11;98739.44;;;11.09;100.00
46946;BME280;32679;40.810;14.498;2023-03-15T03:53:37;98739.03;;;11.07;100.00
46946;BME280;32679;40.810;14.498;2023-03-15T03:56:06;98727.91;;;10.99;100.00
46946;BME280;32679;40.810;14.498;2023-03-15T03:58:35;98733.47;;;10.99;100.00
46946;BME280;32679;40.810;14.498;2023-03-15T04:01:03;98729.13;;;10.88;100.00
46946;BME280;32679;40.810;14.498;2023-03-15T04:03:29;98735.47;;;10.92;100.00
46946;BME280;32679;40.810;14.498;2023-03-15T04:05:56;98739.06;;;10.92;100.00
46946;BME280;32679;40.810;14.498;2023-03-15T04:08:27;98735.88;;;10.83;100.00
46946;BME280;32679;40.810;14.498;2023-03-15T04:10:55;98745.03;;;10.80;100.00
46946;BME280;32679;40.810;14.498;2023-03-15T04:13:22;98755.78;;;10.82;100.00
46946;BME280;32679;40.810;14.498;2023-03-15T04:15:48;98744.25;;;10.72;100.00
46946;BME280;32679;40.810;14.498;2023-03-15T04:18:20;98749.41;;;10.70;100.00
46946;BME280;32679;40.810;14.498;2023-03-15T04:20:46;98742.25;;;10.73;100.00
46946;BME280;32679;40.810;14.498;2023-03-15T04:23:15;98747.03;;;10.76;100.00
46946;BME280;32679;40.810;14.498;2023-03-15T04:25:47;98752.59;;;10.69;100.00
46946;BME280;32679;40.810;14.498;2023-03-15T04:28:13;98748.22;;;10.71;100.00
46946;BME280;32679;40.810;14.498;2023-03-15T04:30:38;98753.00;;;10.67;100.00
46946;BME280;32679;40.810;14.498;2023-03-15T04:33:07;98738.28;;;10.60;100.00
46946;BME280;32679;40.810;14.498;2023-03-15T04:35:35;98750.19;;;10.64;100.00
46946;BME280;32679;40.810;14.498;2023-03-15T04:38:01;98751.00;;;10.75;100.00
46946;BME280;32679;40.810;14.498;2023-03-15T04:40:28;98760.53;;;10.70;100.00
46946;BME280;32679;40.810;14.498;2023-03-15T04:42:57;98752.59;;;10.69;100.00
46946;BME280;32679;40.810;14.498;2023-03-15T04:45:23;98755.75;;;10.85;100.00
46946;BME280;32679;40.810;14.498;2023-03-15T04:47:52;98756.16;;;10.80;100.00
46946;BME280;32679;40.810;14.498;2023-03-15T04:50:18;98757.34;;;10.86;100.00
46946;BME280;32679;40.810;14.498;2023-03-15T04:52:43;98757.31;;;11.00;100.00
46946;BME280;32679;40.810;14.498;2023-03-15T04:55:10;98762.13;;;10.89;100.00
46946;BME280;32679;40.810;14.498;2023-03-15T04:57:36;98770.88;;;10.88;100.00
46946;BME280;32679;40.810;14.498;2023-03-15T05:00:05;98751.78;;;10.79;100.00
46946;BME280;32679;40.810;14.498;2023-03-15T05:02:35;98754.94;;;10.81;100.00
46946;BME280;32679;40.810;14.498;2023-03-15T05:05:05;98754.56;;;10.83;100.00
46946;BME280;32679;40.810;14.498;2023-03-15T05:07:32;98756.16;;;10.84;100.00
46946;BME280;32679;40.810;14.498;2023-03-15T05:10:00;98760.13;;;10.86;100.00
46946;BME280;32679;40.810;14.498;2023-03-15T05:12:29;98763.31;;;10.88;100.00
46946;BME280;32679;40.810;14.498;2023-03-15T05:14:54;98764.50;;;10.87;100.00
46946;BME280;32679;40.810;14.498;2023-03-15T05:17:22;98774.81;;;11.01;100.00
46946;BME280;32679;40.810;14.498;2023-03-15T05:19:48;98768.47;;;10.93;100.00
46946;BME280;32679;40.810;14.498;2023-03-15T05:22:17;98769.28;;;10.94;100.00
46946;BME280;32679;40.810;14.498;2023-03-15T05:24:45;98769.25;;;11.05;100.00
46946;BME280;32679;40.810;14.498;2023-03-15T05:27:11;98766.88;;;11.03;100.00
46946;BME280;32679;40.810;14.498;2023-03-15T05:29:37;98768.44;;;11.08;100.00
46946;BME280;32679;40.810;14.498;2023-03-15T05:32:06;98762.88;;;11.11;100.00
46946;BME280;32679;40.810;14.498;2023-03-15T05:34:37;98758.50;;;11.14;100.00
46946;BME280;32679;40.810;14.498;2023-03-15T05:37:05;98765.25;;;11.16;100.00
46946;BME280;32679;40.810;14.498;2023-03-15T05:39:32;98766.03;;;11.24;100.00
46946;BME280;32679;40.810;14.498;2023-03-15T05:42:01;98768.38;;;11.29;100.00
46946;BME280;32679;40.810;14.498;2023-03-15T05:44:29;98770.78;;;11.31;100.00
46946;BME280;32679;40.810;14.498;2023-03-15T05:46:57;98777.16;;;11.31;100.00
46946;BME280;32679;40.810;14.498;2023-03-15T05:49:25;98780.31;;;11.40;100.00
46946;BME280;32679;40.810;14.498;2023-03-15T05:51:50;98777.53;;;11.40;100.00
46946;BME280;32679;40.810;14.498;2023-03-15T05:54:21;98777.88;;;11.49;100.00
46946;BME280;32679;40.810;14.498;2023-03-15T05:56:49;98781.88;;;11.48;100.00
46946;BME280;32679;40.810;14.498;2023-03-15T05:59:14;98783.81;;;11.55;100.00
46946;BME280;32679;40.810;14.498;2023-03-15T06:01:42;98783.03;;;11.54;100.00
46946;BME280;32679;40.810;14.498;2023-03-15T06:04:12;98781.06;;;11.51;100.00
46946;BME280;32679;40.810;14.498;2023-03-15T06:06:38;98781.06;;;11.51;100.00
46946;BME280;32679;40.810;14.498;2023-03-15T06:09:06;98789.78;;;11.68;100.00
46946;BME280;32679;40.810;14.498;2023-03-15T06:11:34;98789.72;;;11.89;100.00
46946;BME280;32679;40.810;14.498;2023-03-15T06:14:02;98792.91;;;11.77;100.00
46946;BME280;32679;40.810;14.498;2023-03-15T06:16:30;98759.47;;;11.77;100.00
46946;BME280;32679;40.810;14.498;2023-03-15T06:18:56;98786.91;;;11.89;100.00
46946;BME280;32679;40.810;14.498;2023-03-15T06:21:24;98788.91;;;11.89;100.00
46946;BME280;32679;40.810;14.498;2023-03-15T06:23:56;98790.88;;;11.95;100.00
46946;BME280;32679;40.810;14.498;2023-03-15T06:26:24;98796.75;;;12.12;100.00
46946;BME280;32679;40.810;14.498;2023-03-15T06:28:50;98785.97;;;12.14;100.00
46946;BME280;32679;40.810;14.498;2023-03-15T06:31:20;98789.06;;;12.30;100.00
46946;BME280;32679;40.810;14.498;2023-03-15T06:33:50;98782.25;;;12.38;100.00
46946;BME280;32679;40.810;14.498;2023-03-15T06:36:18;98792.19;;;12.43;100.00
46946;BME280;32679;40.810;14.498;2023-03-15T06:38:46;98794.94;;;12.46;100.00
46946;BME280;32679;40.810;14.498;2023-03-15T06:41:16;98789.66;;;12.63;100.00
46946;BME280;32679;40.810;14.498;2023-03-15T06:43:44;98786.78;;;12.73;100.00
46946;BME280;32679;40.810;14.498;2023-03-15T06:46:09;98795.78;;;12.92;100.00
46946;BME280;32679;40.810;14.498;2023-03-15T06:48:37;98795.28;;;13.04;100.00
46946;BME280;32679;40.810;14.498;2023-03-15T06:51:03;98787.31;;;13.02;100.00
46946;BME280;32679;40.810;14.498;2023-03-15T06:53:30;98802.06;;;13.03;100.00
46946;BME280;32679;40.810;14.498;2023-03-15T06:55:55;98806.41;;;13.07;100.00
46946;BME280;32679;40.810;14.498;2023-03-15T06:58:24;98807.34;;;13.73;100.00
46946;BME280;32679;40.810;14.498;2023-03-15T07:00:50;98814.91;;;15.14;100.00
46946;BME280;32679;40.810;14.498;2023-03-15T07:03:15;98813.47;;;15.93;82.60
46946;BME280;32679;40.810;14.498;2023-03-15T07:05:41;98813.94;;;16.96;71.38
46946;BME280;32679;40.810;14.498;2023-03-15T07:08:09;98813.16;;;17.74;66.94
46946;BME280;32679;40.810;14.498;2023-03-15T07:10:38;98819.38;;;18.36;61.28
46946;BME280;32679;40.810;14.498;2023-03-15T07:13:06;98823.94;;;18.97;63.00
46946;BME280;32679;40.810;14.498;2023-03-15T07:15:35;98831.69;;;19.06;65.78
46946;BME280;32679;40.810;14.498;2023-03-15T07:18:03;98836.19;;;18.65;66.81
46946;BME280;32679;40.810;14.498;2023-03-15T07:20:29;98837.56;;;18.99;65.37
46946;BME280;32679;40.810;14.498;2023-03-15T07:22:57;98834.16;;;19.04;63.38
46946;BME280;32679;40.810;14.498;2023-03-15T07:25:26;98839.94;;;18.20;67.53
46946;BME280;32679;40.810;14.498;2023-03-15T07:27:52;98844.63;;;17.69;68.98
46946;BME280;32679;40.810;14.498;2023-03-15T07:30:21;98857.78;;;16.94;71.53
46946;BME280;32679;40.810;14.498;2023-03-15T07:32:49;98846.69;;;16.87;74.27
46946;BME280;32679;40.810;14.498;2023-03-15T07:35:15;98857.25;;;16.63;75.15
46946;BME280;32679;40.810;14.498;2023-03-15T07:37:50;98861.56;;;16.67;74.38
46946;BME280;32679;40.810;14.498;2023-03-15T07:40:18;98850.00;;;17.63;69.97
46946;BME280;32679;40.810;14.498;2023-03-15T07:42:43;98849.16;;;17.63;66.91
46946;BME280;32679;40.810;14.498;2023-03-15T07:45:12;98856.59;;;18.15;62.73
46946;BME280;32679;40.810;14.498;2023-03-15T07:47:38;98863.72;;;18.19;62.01
46946;BME280;32679;40.810;14.498;2023-03-15T07:50:06;98864.59;;;18.16;64.09
46946;BME280;32679;40.810;14.498;2023-03-15T07:52:34;98862.34;;;18.11;62.14
46946;BME280;32679;40.810;14.498;2023-03-15T07:55:02;98869.88;;;18.56;59.66
46946;BME280;32679;40.810;14.498;2023-03-15T07:57:32;98869.25;;;17.94;57.42
46946;BME280;32679;40.810;14.498;2023-03-15T07:59:58;98876.47;;;17.95;57.99
46946;BME280;32679;40.810;14.498;2023-03-15T08:02:28;98880.56;;;17.77;57.73
46946;BME280;32679;40.810;14.498;2023-03-15T08:04:56;98875.59;;;17.20;59.81
46946;BME280;32679;40.810;14.498;2023-03-15T08:07:23;98888.06;;;17.02;60.95
46946;BME280;32679;40.810;14.498;2023-03-15T08:09:48;98882.34;;;17.39;59.67
46946;BME280;32679;40.810;14.498;2023-03-15T08:12:14;98889.91;;;16.57;60.13
46946;BME280;32679;40.810;14.498;2023-03-15T08:14:44;98880.84;;;17.34;59.87
46946;BME280;32679;40.810;14.498;2023-03-15T08:17:10;98872.69;;;17.23;58.08
46946;BME280;32679;40.810;14.498;2023-03-15T08:19:37;98876.50;;;17.78;58.94
46946;BME280;32679;40.810;14.498;2023-03-15T08:22:05;98891.81;;;17.77;57.69
46946;BME280;32679;40.810;14.498;2023-03-15T08:24:33;98877.59;;;17.97;55.68
46946;BME280;32679;40.810;14.498;2023-03-15T08:26:59;98897.13;;;17.43;57.29
46946;BME280;32679;40.810;14.498;2023-03-15T08:29:25;98898.88;;;17.37;60.31
46946;BME280;32679;40.810;14.498;2023-03-15T08:31:51;98902.34;;;17.73;61.04
46946;BME280;32679;40.810;14.498;2023-03-15T08:34:16;98900.09;;;18.26;60.25
46946;BME280;32679;40.810;14.498;2023-03-15T08:36:53;98901.88;;;18.20;57.87
46946;BME280;32679;40.810;14.498;2023-03-15T08:39:18;98906.91;;;18.42;58.25
46946;BME280;32679;40.810;14.498;2023-03-15T08:41:44;98916.84;;;17.72;58.79
46946;BME280;32679;40.810;14.498;2023-03-15T08:44:11;98914.66;;;16.98;60.21
46946;BME280;32679;40.810;14.498;2023-03-15T08:46:40;98908.50;;;16.87;58.86
46946;BME280;32679;40.810;14.498;2023-03-15T08:49:05;98909.84;;;16.22;56.83
46946;BME280;32679;40.810;14.498;2023-03-15T08:51:31;98898.50;;;16.10;55.94
46946;BME280;32679;40.810;14.498;2023-03-15T08:54:01;98907.72;;;17.51;53.00
46946;BME280;32679;40.810;14.498;2023-03-15T08:56:29;98904.50;;;17.53;51.79
46946;BME280;32679;40.810;14.498;2023-03-15T08:58:56;98899.72;;;18.12;51.52
46946;BME280;32679;40.810;14.498;2023-03-15T09:01:25;98901.88;;;18.20;50.15
46946;BME280;32679;40.810;14.498;2023-03-15T09:03:53;98903.13;;;18.61;49.15
46946;BME280;32679;40.810;14.498;2023-03-15T09:06:18;98906.22;;;19.05;47.91
46946;BME280;32679;40.810;14.498;2023-03-15T09:08:46;98904.50;;;18.69;47.71
46946;BME280;32679;40.810;14.498;2023-03-15T09:11:21;98896.75;;;18.86;47.84
46946;BME280;32679;40.810;14.498;2023-03-15T09:13:49;98896.81;;;19.59;45.33
46946;BME280;32679;40.810;14.498;2023-03-15T09:16:17;98899.41;;;19.66;46.62
46946;BME280;32679;40.810;14.498;2023-03-15T09:18:45;98905.59;;;19.96;45.99
46946;BME280;32679;40.810;14.498;2023-03-15T09:21:10;98893.50;;;19.73;46.32
46946;BME280;32679;40.810;14.498;2023-03-15T09:23:38;98900.38;;;19.72;45.02
46946;BME280;32679;40.810;14.498;2023-03-15T09:26:04;98893.53;;;18.58;47.87
46946;BME280;32679;40.810;14.498;2023-03-15T09:28:38;98897.31;;;18.94;48.58
46946;BME280;32679;40.810;14.498;2023-03-15T09:31:06;98901.25;;;18.96;48.01
46946;BME280;32679;40.810;14.498;2023-03-15T09:33:31;98900.44;;;19.21;48.38
46946;BME280;32679;40.810;14.498;2023-03-15T09:36:00;98904.28;;;19.27;48.24
46946;BME280;32679;40.810;14.498;2023-03-15T09:38:26;98900.69;;;19.87;48.68
46946;BME280;32679;40.810;14.498;2023-03-15T09:40:58;98902.38;;;19.84;46.88
46946;BME280;32679;40.810;14.498;2023-03-15T09:44:00;98906.34;;;19.87;46.11
46946;BME280;32679;40.810;14.498;2023-03-15T09:46:40;98876.94;;;20.19;45.87
46946;BME280;32679;40.810;14.498;2023-03-15T09:49:20;98910.75;;;20.10;42.75
46946;BME280;32679;40.810;14.498;2023-03-15T09:52:02;98911.47;;;20.23;43.98
46946;BME280;32679;40.810;14.498;2023-03-15T09:54:50;98914.03;;;19.74;43.82
46946;BME280;32679;40.810;14.498;2023-03-15T09:57:24;98914.34;;;19.03;45.61
46946;BME280;32679;40.810;14.498;2023-03-15T10:00:00;98881.16;;;18.14;48.65
46946;BME280;32679;40.810;14.498;2023-03-15T10:02:31;98911.69;;;19.47;46.37
46946;BME280;32679;40.810;14.498;2023-03-15T10:05:14;98910.50;;;19.09;44.93
46946;BME280;32679;40.810;14.498;2023-03-15T10:07:40;98905.25;;;18.15;47.57
46946;BME280;32679;40.810;14.498;2023-03-15T10:10:18;98913.44;;;17.64;49.32
46946;BME280;32679;40.810;14.498;2023-03-15T10:12:54;98902.06;;;17.84;48.70
46946;BME280;32679;40.810;14.498;2023-03-15T10:15:48;98901.91;;;16.93;51.01
46946;BME280;32679;40.810;14.498;2023-03-15T10:18:24;98916.09;;;17.39;52.24
46946;BME280;32679;40.810;14.498;2023-03-15T10:21:15;98926.16;;;17.03;50.26
46946;BME280;32679;40.810;14.498;2023-03-15T10:23:51;98933.31;;;16.88;52.48
46946;BME280;32679;40.810;14.498;2023-03-15T10:26:22;98922.78;;;16.56;52.46
46946;BME280;32679;40.810;14.498;2023-03-15T10:28:49;98929.22;;;16.93;50.58
46946;BME280;32679;40.810;14.498;2023-03-15T10:31:25;98940.00;;;16.78;51.69
46946;BME280;32679;40.810;14.498;2023-03-15T10:33:54;98933.81;;;17.03;50.39
46946;BME280;32679;40.810;14.498;2023-03-15T10:36:26;98935.59;;;17.29;51.67
46946;BME280;32679;40.810;14.498;2023-03-15T10:38:51;98929.44;;;18.42;51.03
46946;BME280;32679;40.810;14.498;2023-03-15T10:41:36;98929.38;;;18.00;52.08
46946;BME280;32679;40.810;14.498;2023-03-15T10:44:06;98933.53;;;18.66;50.11
46946;BME280;32679;40.810;14.498;2023-03-15T10:46:34;98919.50;;;19.30;48.25
46946;BME280;32679;40.810;14.498;2023-03-15T10:49:14;98925.38;;;19.96;46.42
46946;BME280;32679;40.810;14.498;2023-03-15T10:51:42;98929.44;;;20.51;45.23
46946;BME280;32679;40.810;14.498;2023-03-15T10:54:17;98934.28;;;19.94;44.00
46946;BME280;32679;40.810;14.498;2023-03-15T10:57:11;98933.69;;;20.56;44.21
46946;BME280;32679;40.810;14.498;2023-03-15T10:59:56;98928.16;;;20.74;42.30
46946;BME280;32679;40.810;14.498;2023-03-15T11:02:24;98928.06;;;21.18;41.92
46946;BME280;32679;40.810;14.498;2023-03-15T11:05:03;98942.72;;;20.29;44.61
46946;BME280;32679;40.810;14.498;2023-03-15T11:07:35;98939.13;;;19.46;48.67
46946;BME280;32679;40.810;14.498;2023-03-15T11:10:02;98944.09;;;19.42;51.78
46946;BME280;32679;40.810;14.498;2023-03-15T11:12:33;98940.47;;;19.42;50.80
46946;BME280;32679;40.810;14.498;2023-03-15T11:15:17;98932.13;;;19.00;50.45
46946;BME280;32679;40.810;14.498;2023-03-15T11:17:45;98932.69;;;18.95;50.90
46946;BME280;32679;40.810;14.498;2023-03-15T11:20:29;98935.22;;;18.64;51.78
46946;BME280;32679;40.810;14.498;2023-03-15T11:22:56;98926.19;;;18.14;53.53
46946;BME280;32679;40.810;14.498;2023-03-15T11:25:30;98924.84;;;17.90;55.91
46946;BME280;32679;40.810;14.498;2023-03-15T11:28:01;98926.59;;;18.29;54.28
46946;BME280;32679;40.810;14.498;2023-03-15T11:30:29;98928.78;;;19.18;46.91
46946;BME280;32679;40.810;14.498;2023-03-15T11:33:04;98933.13;;;20.04;44.43
46946;BME280;32679;40.810;14.498;2023-03-15T11:35:37;98932.09;;;20.33;46.24
46946;BME280;32679;40.810;14.498;2023-03-15T11:38:17;98928.88;;;20.22;48.14
46946;BME280;32679;40.810;14.498;2023-03-15T11:40:53;98925.78;;;20.07;48.77
46946;BME280;32679;40.810;14.498;2023-03-15T11:43:27;98933.47;;;19.72;43.49
46946;BME280;32679;40.810;14.498;2023-03-15T11:46:05;98929.03;;;19.83;42.63
46946;BME280;32679;40.810;14.498;2023-03-15T11:48:54;98925.84;;;19.81;41.32
46946;BME280;32679;40.810;14.498;2023-03-15T11:51:22;98939.91;;;19.72;45.69
46946;BME280;32679;40.810;14.498;2023-03-15T11:54:13;98943.72;;;19.53;48.03
46946;BME280;32679;40.810;14.498;2023-03-15T11:59:10;98934.84;;;18.91;51.06
46946;BME280;32679;40.810;14.498;2023-03-15T12:01:41;98929.41;;;18.71;52.90
46946;BME280;32679;40.810;14.498;2023-03-15T12:06:57;98933.31;;;17.90;55.36
46946;BME280;32679;40.810;14.498;2023-03-15T12:12:00;98943.16;;;17.82;57.01
46946;BME280;32679;40.810;14.498;2023-03-15T12:14:32;98939.34;;;17.72;59.33
46946;BME280;32679;40.810;14.498;2023-03-15T12:22:41;98943.81;;;17.20;65.62
46946;BME280;32679;40.810;14.498;2023-03-15T12:25:15;98944.31;;;16.99;63.19
46946;BME280;32679;40.810;14.498;2023-03-15T12:27:56;98946.34;;;16.62;55.28
46946;BME280;32679;40.810;14.498;2023-03-15T12:30:28;98946.28;;;16.46;53.67
46946;BME280;32679;40.810;14.498;2023-03-15T12:32:58;98937.63;;;16.37;54.50
46946;BME280;32679;40.810;14.498;2023-03-15T12:35:39;98931.38;;;16.09;55.39
46946;BME280;32679;40.810;14.498;2023-03-15T12:38:13;98929.72;;;16.32;56.94
46946;BME280;32679;40.810;14.498;2023-03-15T12:40:49;98941.38;;;16.10;57.28
46946;BME280;32679;40.810;14.498;2023-03-15T12:43:37;98948.28;;;16.26;60.06
46946;BME280;32679;40.810;14.498;2023-03-15T12:46:06;98943.38;;;16.30;61.36
46946;BME280;32679;40.810;14.498;2023-03-15T12:48:32;98940.88;;;16.15;60.37
46946;BME280;32679;40.810;14.498;2023-03-15T12:51:03;98941.50;;;16.23;61.43
46946;BME280;32679;40.810;14.498;2023-03-15T12:59:09;98932.66;;;16.05;59.20
46946;BME280;32679;40.810;14.498;2023-03-15T13:01:40;98937.31;;;16.11;59.37
46946;BME280;32679;40.810;14.498;2023-03-15T13:04:08;98949.06;;;16.06;60.61
46946;BME280;32679;40.810;14.498;2023-03-15T13:09:24;98953.03;;;15.85;60.70
46946;BME280;32679;40.810;14.498;2023-03-15T13:12:28;98952.91;;;15.45;57.67
46946;BME280;32679;40.810;14.498;2023-03-15T13:15:24;98967.78;;;15.15;56.99
46946;BME280;32679;40.810;14.498;2023-03-15T13:18:19;98972.31;;;14.79;57.06
46946;BME280;32679;40.810;14.498;2023-03-15T13:21:04;98966.28;;;14.46;57.31
46946;BME280;32679;40.810;14.498;2023-03-15T13:23:33;98985.31;;;14.28;57.95
46946;BME280;32679;40.810;14.498;2023-03-15T13:28:50;98954.84;;;13.99;56.76